sensor_id;sensor_type;location;lat;lon;timestamp;temperature;humidity
52709;DHT22;38606;52.986;6.980;2024-03-08T00:02:38;1.60;99.90
52709;DHT22;38606;52.986;6.980;2024-03-08T00:05:05;1.50;99.90
52709;DHT22;38606;52.986;6.980;2024-03-08T00:07:31;1.60;99.90
52709;DHT22;38606;52.986;6.980;2024-03-08T00:09:57;1.60;99.90
52709;DHT22;38606;52.986;6.980;2024-03-08T00:12:23;1.60;99.90
52709;DHT22;38606;52.986;6.980;2024-03-08T00:14:49;1.60;99.90
52709;DHT22;38606;52.986;6.980;2024-03-08T00:17:14;1.70;99.90
52709;DHT22;38606;52.986;6.980;2024-03-08T00:19:41;1.60;99.90
52709;DHT22;38606;52.986;6.980;2024-03-08T00:22:07;1.60;99.90
52709;DHT22;38606;52.986;6.980;2024-03-08T00:24:33;1.60;99.90
52709;DHT22;38606;52.986;6.980;2024-03-08T00:26:59;1.60;99.90
52709;DHT22;38606;52.986;6.980;2024-03-08T00:29:24;1.60;99.90
52709;DHT22;38606;52.986;6.980;2024-03-08T00:31:50;1.60;99.90
52709;DHT22;38606;52.986;6.980;2024-03-08T00:34:16;1.50;99.90
52709;DHT22;38606;52.986;6.980;2024-03-08T00:36:41;1.50;99.90
52709;DHT22;38606;52.986;6.980;2024-03-08T00:39:07;1.50;99.90
52709;DHT22;38606;52.986;6.980;2024-03-08T00:41:33;1.40;99.90
52709;DHT22;38606;52.986;6.980;2024-03-08T00:43:59;1.50;99.90
52709;DHT22;38606;52.986;6.980;2024-03-08T00:46:24;1.50;99.90
52709;DHT22;38606;52.986;6.980;2024-03-08T00:48:50;1.40;99.90
52709;DHT22;38606;52.986;6.980;2024-03-08T00:51:16;1.40;99.90
52709;DHT22;38606;52.986;6.980;2024-03-08T00:53:42;1.30;99.90
52709;DHT22;38606;52.986;6.980;2024-03-08T00:56:08;1.40;99.90
52709;DHT22;38606;52.986;6.980;2024-03-08T00:58:37;1.40;99.90
52709;DHT22;38606;52.986;6.980;2024-03-08T01:01:03;1.40;99.90
52709;DHT22;38606;52.986;6.980;2024-03-08T01:03:30;1.30;99.90
52709;DHT22;38606;52.986;6.980;2024-03-08T01:06:00;1.30;99.90
52709;DHT22;38606;52.986;6.980;2024-03-08T01:08:30;1.30;99.90
52709;DHT22;38606;52.986;6.980;2024-03-08T01:13:21;1.30;99.90
52709;DHT22;38606;52.986;6.980;2024-03-08T01:15:47;1.30;99.90
52709;DHT22;38606;52.986;6.980;2024-03-08T01:20:39;1.30;99.90
52709;DHT22;38606;52.986;6.980;2024-03-08T01:23:06;1.30;99.90
52709;DHT22;38606;52.986;6.980;2024-03-08T01:25:33;1.30;99.90
52709;DHT22;38606;52.986;6.980;2024-03-08T01:27:59;1.30;99.90
52709;DHT22;38606;52.986;6.980;2024-03-08T01:30:25;1.30;99.90
52709;DHT22;38606;52.986;6.980;2024-03-08T01:32:50;1.30;99.90
52709;DHT22;38606;52.986;6.980;2024-03-08T01:35:16;1.20;99.90
52709;DHT22;38606;52.986;6.980;2024-03-08T01:37:43;1.30;99.90
52709;DHT22;38606;52.986;6.980;2024-03-08T01:40:09;1.40;99.90
52709;DHT22;38606;52.986;6.980;2024-03-08T01:42:34;1.30;99.90
52709;DHT22;38606;52.986;6.980;2024-03-08T01:45:07;1.20;99.90
52709;DHT22;38606;52.986;6.980;2024-03-08T01:47:34;1.20;99.90
52709;DHT22;38606;52.986;6.980;2024-03-08T01:50:02;1.10;99.90
52709;DHT22;38606;52.986;6.980;2024-03-08T01:52:32;1.30;99.90
52709;DHT22;38606;52.986;6.980;2024-03-08T01:55:03;1.20;99.90
52709;DHT22;38606;52.986;6.980;2024-03-08T01:57:35;1.00;99.90
52709;DHT22;38606;52.986;6.980;2024-03-08T02:00:04;1.30;99.90
52709;DHT22;38606;52.986;6.980;2024-03-08T02:02:32;1.20;99.90
52709;DHT22;38606;52.986;6.980;2024-03-08T02:07:24;1.10;99.90
52709;DHT22;38606;52.986;6.980;2024-03-08T02:09:49;1.10;99.90
52709;DHT22;38606;52.986;6.980;2024-03-08T02:14:42;1.10;99.90
52709;DHT22;38606;52.986;6.980;2024-03-08T02:17:09;1.00;99.90
52709;DHT22;38606;52.986;6.980;2024-03-08T02:19:35;1.00;99.90
52709;DHT22;38606;52.986;6.980;2024-03-08T02:22:01;1.20;99.90
52709;DHT22;38606;52.986;6.980;2024-03-08T02:24:30;1.00;99.90
52709;DHT22;38606;52.986;6.980;2024-03-08T02:26:56;1.00;99.90
52709;DHT22;38606;52.986;6.980;2024-03-08T02:29:22;1.10;99.90
52709;DHT22;38606;52.986;6.980;2024-03-08T02:31:51;1.10;99.90
52709;DHT22;38606;52.986;6.980;2024-03-08T02:34:17;1.10;99.90
52709;DHT22;38606;52.986;6.980;2024-03-08T02:39:08;1.00;99.90
52709;DHT22;38606;52.986;6.980;2024-03-08T02:41:36;1.00;99.90
52709;DHT22;38606;52.986;6.980;2024-03-08T02:44:02;1.00;99.90
52709;DHT22;38606;52.986;6.980;2024-03-08T02:46:28;1.00;99.90
52709;DHT22;38606;52.986;6.980;2024-03-08T02:51:20;1.00;99.90
52709;DHT22;38606;52.986;6.980;2024-03-08T02:53:45;1.00;99.90
52709;DHT22;38606;52.986;6.980;2024-03-08T02:56:14;1.00;99.90
52709;DHT22;38606;52.986;6.980;2024-03-08T02:58:42;1.00;99.90
52709;DHT22;38606;52.986;6.980;2024-03-08T03:03:35;1.00;99.90
52709;DHT22;38606;52.986;6.980;2024-03-08T03:06:02;0.90;99.90
52709;DHT22;38606;52.986;6.980;2024-03-08T03:08:28;0.90;99.90
52709;DHT22;38606;52.986;6.980;2024-03-08T03:10:53;0.90;99.90
52709;DHT22;38606;52.986;6.980;2024-03-08T03:13:22;0.90;99.90
52709;DHT22;38606;52.986;6.980;2024-03-08T03:15:48;0.80;99.90
52709;DHT22;38606;52.986;6.980;2024-03-08T03:18:14;0.90;99.90
52709;DHT22;38606;52.986;6.980;2024-03-08T03:20:41;0.80;99.90
52709;DHT22;38606;52.986;6.980;2024-03-08T03:23:09;0.80;99.90
52709;DHT22;38606;52.986;6.980;2024-03-08T03:25:35;0.70;99.90
52709;DHT22;38606;52.986;6.980;2024-03-08T03:28:02;0.90;99.90
52709;DHT22;38606;52.986;6.980;2024-03-08T03:32:59;0.90;99.90
52709;DHT22;38606;52.986;6.980;2024-03-08T03:35:26;0.80;99.90
52709;DHT22;38606;52.986;6.980;2024-03-08T03:37:52;0.80;99.90
52709;DHT22;38606;52.986;6.980;2024-03-08T03:40:34;0.80;99.90
52709;DHT22;38606;52.986;6.980;2024-03-08T03:43:01;0.90;99.90
52709;DHT22;38606;52.986;6.980;2024-03-08T03:47:54;0.80;99.90
52709;DHT22;38606;52.986;6.980;2024-03-08T03:50:20;0.80;99.90
52709;DHT22;38606;52.986;6.980;2024-03-08T03:52:46;0.70;99.90
52709;DHT22;38606;52.986;6.980;2024-03-08T03:55:13;0.70;99.90
52709;DHT22;38606;52.986;6.980;2024-03-08T03:57:39;1.00;99.90
52709;DHT22;38606;52.986;6.980;2024-03-08T04:00:06;0.90;99.90
52709;DHT22;38606;52.986;6.980;2024-03-08T04:02:37;0.80;99.90
52709;DHT22;38606;52.986;6.980;2024-03-08T04:05:07;0.70;99.90
52709;DHT22;38606;52.986;6.980;2024-03-08T04:07:33;0.70;99.90
52709;DHT22;38606;52.986;6.980;2024-03-08T04:10:01;0.70;99.90
52709;DHT22;38606;52.986;6.980;2024-03-08T04:12:27;0.70;99.90
52709;DHT22;38606;52.986;6.980;2024-03-08T04:14:55;0.70;99.90
52709;DHT22;38606;52.986;6.980;2024-03-08T04:17:22;0.70;99.90
52709;DHT22;38606;52.986;6.980;2024-03-08T04:19:49;0.60;99.90
52709;DHT22;38606;52.986;6.980;2024-03-08T04:24:44;0.70;99.90
52709;DHT22;38606;52.986;6.980;2024-03-08T04:27:10;0.70;99.90
52709;DHT22;38606;52.986;6.980;2024-03-08T04:29:36;0.70;99.90
52709;DHT22;38606;52.986;6.980;2024-03-08T04:32:05;0.50;99.90
52709;DHT22;38606;52.986;6.980;2024-03-08T04:37:03;0.50;99.90
52709;DHT22;38606;52.986;6.980;2024-03-08T04:42:02;0.50;99.90
52709;DHT22;38606;52.986;6.980;2024-03-08T04:44:36;0.50;99.90
52709;DHT22;38606;52.986;6.980;2024-03-08T04:49:32;0.60;99.90
52709;DHT22;38606;52.986;6.980;2024-03-08T04:52:04;0.60;99.90
52709;DHT22;38606;52.986;6.980;2024-03-08T04:54:30;0.60;99.90
52709;DHT22;38606;52.986;6.980;2024-03-08T04:56:56;0.70;99.90
52709;DHT22;38606;52.986;6.980;2024-03-08T04:59:22;0.60;99.90
52709;DHT22;38606;52.986;6.980;2024-03-08T05:01:48;0.50;99.90
52709;DHT22;38606;52.986;6.980;2024-03-08T05:04:14;0.50;99.90
52709;DHT22;38606;52.986;6.980;2024-03-08T05:11:43;0.50;99.90
52709;DHT22;38606;52.986;6.980;2024-03-08T05:14:10;0.40;99.90
52709;DHT22;38606;52.986;6.980;2024-03-08T05:16:35;0.50;99.90
52709;DHT22;38606;52.986;6.980;2024-03-08T05:19:02;0.30;99.90
52709;DHT22;38606;52.986;6.980;2024-03-08T05:21:28;0.60;99.90
52709;DHT22;38606;52.986;6.980;2024-03-08T05:23:57;0.30;99.90
52709;DHT22;38606;52.986;6.980;2024-03-08T05:26:23;0.50;99.90
52709;DHT22;38606;52.986;6.980;2024-03-08T05:28:49;0.40;99.90
52709;DHT22;38606;52.986;6.980;2024-03-08T05:31:21;0.40;99.90
52709;DHT22;38606;52.986;6.980;2024-03-08T05:33:50;0.40;99.90
52709;DHT22;38606;52.986;6.980;2024-03-08T05:36:16;0.50;99.90
52709;DHT22;38606;52.986;6.980;2024-03-08T05:38:45;0.50;99.90
52709;DHT22;38606;52.986;6.980;2024-03-08T05:41:11;0.50;99.90
52709;DHT22;38606;52.986;6.980;2024-03-08T05:43:40;0.40;99.90
52709;DHT22;38606;52.986;6.980;2024-03-08T05:48:33;0.40;99.90
52709;DHT22;38606;52.986;6.980;2024-03-08T05:51:00;0.40;99.90
52709;DHT22;38606;52.986;6.980;2024-03-08T06:00:49;0.40;99.90
52709;DHT22;38606;52.986;6.980;2024-03-08T06:05:41;0.50;99.90
52709;DHT22;38606;52.986;6.980;2024-03-08T06:08:07;0.30;99.90
52709;DHT22;38606;52.986;6.980;2024-03-08T06:10:33;0.30;99.90
52709;DHT22;38606;52.986;6.980;2024-03-08T06:12:59;0.40;99.90
52709;DHT22;38606;52.986;6.980;2024-03-08T06:15:25;0.40;99.90
52709;DHT22;38606;52.986;6.980;2024-03-08T06:25:12;0.20;99.90
52709;DHT22;38606;52.986;6.980;2024-03-08T06:27:41;0.30;99.90
52709;DHT22;38606;52.986;6.980;2024-03-08T06:32:36;0.40;99.90
52709;DHT22;38606;52.986;6.980;2024-03-08T06:35:03;0.20;99.90
52709;DHT22;38606;52.986;6.980;2024-03-08T06:42:24;0.40;99.90
52709;DHT22;38606;52.986;6.980;2024-03-08T06:49:45;0.60;99.90
52709;DHT22;38606;52.986;6.980;2024-03-08T06:52:11;0.50;99.90
52709;DHT22;38606;52.986;6.980;2024-03-08T06:57:03;0.50;99.90
52709;DHT22;38606;52.986;6.980;2024-03-08T06:59:33;0.40;99.90
52709;DHT22;38606;52.986;6.980;2024-03-08T07:02:01;0.60;99.90
52709;DHT22;38606;52.986;6.980;2024-03-08T07:09:25;0.60;99.90
52709;DHT22;38606;52.986;6.980;2024-03-08T07:11:51;0.80;99.90
52709;DHT22;38606;52.986;6.980;2024-03-08T07:14:27;0.70;99.90
52709;DHT22;38606;52.986;6.980;2024-03-08T07:16:52;0.70;99.90
52709;DHT22;38606;52.986;6.980;2024-03-08T07:21:45;0.90;99.90
52709;DHT22;38606;52.986;6.980;2024-03-08T07:24:11;0.90;99.90
52709;DHT22;38606;52.986;6.980;2024-03-08T07:26:43;1.00;99.90
52709;DHT22;38606;52.986;6.980;2024-03-08T07:29:09;1.00;99.90
52709;DHT22;38606;52.986;6.980;2024-03-08T07:31:35;1.00;99.90
52709;DHT22;38606;52.986;6.980;2024-03-08T07:34:16;1.10;99.90
52709;DHT22;38606;52.986;6.980;2024-03-08T07:36:42;1.00;99.90
52709;DHT22;38606;52.986;6.980;2024-03-08T07:44:07;1.20;99.90
52709;DHT22;38606;52.986;6.980;2024-03-08T07:46:33;1.30;99.90
52709;DHT22;38606;52.986;6.980;2024-03-08T07:49:02;1.40;99.90
52709;DHT22;38606;52.986;6.980;2024-03-08T07:51:28;1.40;99.90
52709;DHT22;38606;52.986;6.980;2024-03-08T07:53:54;1.60;99.90
52709;DHT22;38606;52.986;6.980;2024-03-08T07:56:20;1.60;99.90
52709;DHT22;38606;52.986;6.980;2024-03-08T07:58:47;1.50;99.90
52709;DHT22;38606;52.986;6.980;2024-03-08T08:01:17;1.70;99.90
52709;DHT22;38606;52.986;6.980;2024-03-08T08:03:43;1.80;99.90
52709;DHT22;38606;52.986;6.980;2024-03-08T08:06:09;1.90;99.90
52709;DHT22;38606;52.986;6.980;2024-03-08T08:08:35;1.90;99.90
52709;DHT22;38606;52.986;6.980;2024-03-08T08:11:02;2.10;99.90
52709;DHT22;38606;52.986;6.980;2024-03-08T08:15:58;2.00;99.90
52709;DHT22;38606;52.986;6.980;2024-03-08T08:18:24;2.20;99.90
52709;DHT22;38606;52.986;6.980;2024-03-08T08:20:51;2.30;99.90
52709;DHT22;38606;52.986;6.980;2024-03-08T08:23:18;2.40;99.90
52709;DHT22;38606;52.986;6.980;2024-03-08T08:25:45;2.60;99.90
52709;DHT22;38606;52.986;6.980;2024-03-08T08:28:11;2.50;99.90
52709;DHT22;38606;52.986;6.980;2024-03-08T08:30:38;2.80;99.90
52709;DHT22;38606;52.986;6.980;2024-03-08T08:33:04;2.70;99.90
52709;DHT22;38606;52.986;6.980;2024-03-08T08:35:31;2.90;99.90
52709;DHT22;38606;52.986;6.980;2024-03-08T08:37:58;2.90;99.90
52709;DHT22;38606;52.986;6.980;2024-03-08T08:40:25;3.10;99.90
52709;DHT22;38606;52.986;6.980;2024-03-08T08:42:51;3.20;99.90
52709;DHT22;38606;52.986;6.980;2024-03-08T08:45:18;3.10;99.90
52709;DHT22;38606;52.986;6.980;2024-03-08T08:47:44;3.20;99.90
52709;DHT22;38606;52.986;6.980;2024-03-08T08:50:11;3.10;99.90
52709;DHT22;38606;52.986;6.980;2024-03-08T08:52:38;3.30;99.90
52709;DHT22;38606;52.986;6.980;2024-03-08T08:55:04;3.40;99.90
52709;DHT22;38606;52.986;6.980;2024-03-08T08:57:32;3.50;99.90
52709;DHT22;38606;52.986;6.980;2024-03-08T09:00:01;3.70;99.90
52709;DHT22;38606;52.986;6.980;2024-03-08T09:02:27;3.60;99.90
52709;DHT22;38606;52.986;6.980;2024-03-08T09:04:53;3.60;99.90
52709;DHT22;38606;52.986;6.980;2024-03-08T09:07:19;3.60;99.90
52709;DHT22;38606;52.986;6.980;2024-03-08T09:09:45;3.90;99.90
52709;DHT22;38606;52.986;6.980;2024-03-08T09:12:11;3.70;99.90
52709;DHT22;38606;52.986;6.980;2024-03-08T09:14:40;3.90;99.90
52709;DHT22;38606;52.986;6.980;2024-03-08T09:17:07;3.90;99.90
52709;DHT22;38606;52.986;6.980;2024-03-08T09:19:34;3.90;99.90
52709;DHT22;38606;52.986;6.980;2024-03-08T09:22:00;4.00;99.90
52709;DHT22;38606;52.986;6.980;2024-03-08T09:24:26;4.10;99.90
52709;DHT22;38606;52.986;6.980;2024-03-08T09:26:52;3.90;99.90
52709;DHT22;38606;52.986;6.980;2024-03-08T09:29:17;4.30;99.90
52709;DHT22;38606;52.986;6.980;2024-03-08T09:31:43;4.30;99.90
52709;DHT22;38606;52.986;6.980;2024-03-08T09:34:11;4.30;99.90
52709;DHT22;38606;52.986;6.980;2024-03-08T09:36:37;4.40;99.90
52709;DHT22;38606;52.986;6.980;2024-03-08T09:39:03;4.60;99.90
52709;DHT22;38606;52.986;6.980;2024-03-08T09:41:29;4.50;99.90
52709;DHT22;38606;52.986;6.980;2024-03-08T09:43:56;4.50;99.90
52709;DHT22;38606;52.986;6.980;2024-03-08T09:46:25;4.50;99.90
52709;DHT22;38606;52.986;6.980;2024-03-08T09:48:53;4.60;99.90
52709;DHT22;38606;52.986;6.980;2024-03-08T09:51:22;4.50;99.90
52709;DHT22;38606;52.986;6.980;2024-03-08T09:53:49;5.10;99.90
52709;DHT22;38606;52.986;6.980;2024-03-08T09:56:15;5.00;99.90
52709;DHT22;38606;52.986;6.980;2024-03-08T09:58:40;4.80;99.90
52709;DHT22;38606;52.986;6.980;2024-03-08T10:01:25;4.80;99.90
52709;DHT22;38606;52.986;6.980;2024-03-08T10:03:52;5.00;99.90
52709;DHT22;38606;52.986;6.980;2024-03-08T10:06:22;5.00;99.90
52709;DHT22;38606;52.986;6.980;2024-03-08T10:08:48;5.20;99.90
52709;DHT22;38606;52.986;6.980;2024-03-08T10:11:16;5.20;99.90
52709;DHT22;38606;52.986;6.980;2024-03-08T10:13:42;5.30;99.90
52709;DHT22;38606;52.986;6.980;2024-03-08T10:16:08;5.40;99.90
52709;DHT22;38606;52.986;6.980;2024-03-08T10:18:34;5.50;99.90
52709;DHT22;38606;52.986;6.980;2024-03-08T10:21:04;5.40;99.90
52709;DHT22;38606;52.986;6.980;2024-03-08T10:23:31;5.60;99.90
52709;DHT22;38606;52.986;6.980;2024-03-08T10:25:57;5.60;99.90
52709;DHT22;38606;52.986;6.980;2024-03-08T10:28:24;5.60;99.90
52709;DHT22;38606;52.986;6.980;2024-03-08T10:30:56;5.80;99.90
52709;DHT22;38606;52.986;6.980;2024-03-08T10:33:23;6.00;99.90
52709;DHT22;38606;52.986;6.980;2024-03-08T10:35:49;5.80;99.90
52709;DHT22;38606;52.986;6.980;2024-03-08T10:38:16;6.10;99.90
52709;DHT22;38606;52.986;6.980;2024-03-08T10:40:45;6.10;99.90
52709;DHT22;38606;52.986;6.980;2024-03-08T10:43:24;6.20;99.90
52709;DHT22;38606;52.986;6.980;2024-03-08T10:45:59;6.40;99.90
52709;DHT22;38606;52.986;6.980;2024-03-08T10:48:30;6.60;99.90
52709;DHT22;38606;52.986;6.980;2024-03-08T10:51:08;6.40;99.90
52709;DHT22;38606;52.986;6.980;2024-03-08T10:53:36;6.50;99.90
52709;DHT22;38606;52.986;6.980;2024-03-08T10:56:05;6.60;99.90
52709;DHT22;38606;52.986;6.980;2024-03-08T10:58:31;6.60;99.90
52709;DHT22;38606;52.986;6.980;2024-03-08T11:00:57;6.70;99.90
52709;DHT22;38606;52.986;6.980;2024-03-08T11:08:57;6.90;99.90
52709;DHT22;38606;52.986;6.980;2024-03-08T11:11:30;7.10;99.90
52709;DHT22;38606;52.986;6.980;2024-03-08T11:13:57;7.40;99.90
52709;DHT22;38606;52.986;6.980;2024-03-08T11:19:22;7.20;99.90
52709;DHT22;38606;52.986;6.980;2024-03-08T11:21:57;7.10;99.90
52709;DHT22;38606;52.986;6.980;2024-03-08T11:24:23;7.20;99.90
52709;DHT22;38606;52.986;6.980;2024-03-08T11:26:49;7.30;99.90
52709;DHT22;38606;52.986;6.980;2024-03-08T11:32:15;7.50;99.90
52709;DHT22;38606;52.986;6.980;2024-03-08T11:34:48;7.60;99.90
52709;DHT22;38606;52.986;6.980;2024-03-08T11:37:19;7.60;99.90
52709;DHT22;38606;52.986;6.980;2024-03-08T11:39:51;7.40;99.90
52709;DHT22;38606;52.986;6.980;2024-03-08T11:42:18;7.50;99.90
52709;DHT22;38606;52.986;6.980;2024-03-08T11:44:47;7.60;99.90
52709;DHT22;38606;52.986;6.980;2024-03-08T11:47:14;7.50;99.90
52709;DHT22;38606;52.986;6.980;2024-03-08T11:49:40;7.70;99.90
52709;DHT22;38606;52.986;6.980;2024-03-08T11:52:14;7.70;99.90
52709;DHT22;38606;52.986;6.980;2024-03-08T11:54:41;7.60;99.90
52709;DHT22;38606;52.986;6.980;2024-03-08T11:57:07;8.00;99.90
52709;DHT22;38606;52.986;6.980;2024-03-08T11:59:35;7.90;99.90
52709;DHT22;38606;52.986;6.980;2024-03-08T12:02:07;8.00;99.90
52709;DHT22;38606;52.986;6.980;2024-03-08T12:04:36;7.90;99.90
52709;DHT22;38606;52.986;6.980;2024-03-08T12:07:03;8.00;99.90
52709;DHT22;38606;52.986;6.980;2024-03-08T12:09:35;8.00;99.90
52709;DHT22;38606;52.986;6.980;2024-03-08T12:12:02;8.00;99.90
52709;DHT22;38606;52.986;6.980;2024-03-08T12:14:30;8.10;99.90
52709;DHT22;38606;52.986;6.980;2024-03-08T12:16:57;8.20;99.90
52709;DHT22;38606;52.986;6.980;2024-03-08T12:19:23;8.20;99.90
52709;DHT22;38606;52.986;6.980;2024-03-08T12:21:49;8.40;99.90
52709;DHT22;38606;52.986;6.980;2024-03-08T12:24:18;8.20;99.90
52709;DHT22;38606;52.986;6.980;2024-03-08T12:26:46;8.40;99.90
52709;DHT22;38606;52.986;6.980;2024-03-08T12:29:21;8.50;99.90
52709;DHT22;38606;52.986;6.980;2024-03-08T12:31:54;8.50;99.90
52709;DHT22;38606;52.986;6.980;2024-03-08T12:34:20;8.60;99.90
52709;DHT22;38606;52.986;6.980;2024-03-08T12:36:47;8.60;99.90
52709;DHT22;38606;52.986;6.980;2024-03-08T12:39:17;8.70;99.90
52709;DHT22;38606;52.986;6.980;2024-03-08T12:41:51;8.80;99.90
52709;DHT22;38606;52.986;6.980;2024-03-08T12:44:20;8.60;99.90
52709;DHT22;38606;52.986;6.980;2024-03-08T12:46:50;8.70;99.90
52709;DHT22;38606;52.986;6.980;2024-03-08T12:49:17;8.70;99.90
52709;DHT22;38606;52.986;6.980;2024-03-08T12:51:48;9.30;99.90
52709;DHT22;38606;52.986;6.980;2024-03-08T12:54:14;8.70;99.90
52709;DHT22;38606;52.986;6.980;2024-03-08T12:56:40;8.90;99.90
52709;DHT22;38606;52.986;6.980;2024-03-08T12:59:07;8.90;99.90
52709;DHT22;38606;52.986;6.980;2024-03-08T13:01:33;8.90;99.90
52709;DHT22;38606;52.986;6.980;2024-03-08T13:04:00;8.80;99.90
52709;DHT22;38606;52.986;6.980;2024-03-08T13:06:29;9.10;99.90
52709;DHT22;38606;52.986;6.980;2024-03-08T13:08:56;9.00;99.90
52709;DHT22;38606;52.986;6.980;2024-03-08T13:11:24;9.10;99.90
52709;DHT22;38606;52.986;6.980;2024-03-08T13:13:53;9.10;99.90
52709;DHT22;38606;52.986;6.980;2024-03-08T13:16:19;9.20;99.90
52709;DHT22;38606;52.986;6.980;2024-03-08T13:18:46;9.30;99.90
52709;DHT22;38606;52.986;6.980;2024-03-08T13:21:14;8.90;99.90
52709;DHT22;38606;52.986;6.980;2024-03-08T13:23:44;9.30;99.90
52709;DHT22;38606;52.986;6.980;2024-03-08T13:26:15;9.00;99.90
52709;DHT22;38606;52.986;6.980;2024-03-08T13:28:48;9.20;99.90
52709;DHT22;38606;52.986;6.980;2024-03-08T13:31:22;9.20;99.90
52709;DHT22;38606;52.986;6.980;2024-03-08T13:33:47;8.90;99.90
52709;DHT22;38606;52.986;6.980;2024-03-08T13:36:14;8.90;99.90
52709;DHT22;38606;52.986;6.980;2024-03-08T13:38:43;9.10;99.90
52709;DHT22;38606;52.986;6.980;2024-03-08T13:41:16;9.40;99.90
52709;DHT22;38606;52.986;6.980;2024-03-08T13:43:43;9.10;99.90
52709;DHT22;38606;52.986;6.980;2024-03-08T13:46:10;8.90;99.90
52709;DHT22;38606;52.986;6.980;2024-03-08T13:48:37;8.90;99.90
52709;DHT22;38606;52.986;6.980;2024-03-08T13:51:07;8.90;99.90
52709;DHT22;38606;52.986;6.980;2024-03-08T13:53:33;8.70;99.90
52709;DHT22;38606;52.986;6.980;2024-03-08T13:56:03;8.80;99.90
52709;DHT22;38606;52.986;6.980;2024-03-08T13:58:29;8.90;99.90
52709;DHT22;38606;52.986;6.980;2024-03-08T14:00:55;8.70;99.90
52709;DHT22;38606;52.986;6.980;2024-03-08T14:03:21;8.70;99.90
52709;DHT22;38606;52.986;6.980;2024-03-08T14:05:47;8.80;99.90
52709;DHT22;38606;52.986;6.980;2024-03-08T14:08:13;8.60;99.90
52709;DHT22;38606;52.986;6.980;2024-03-08T14:10:39;10.70;99.90
52709;DHT22;38606;52.986;6.980;2024-03-08T14:13:05;9.00;99.90
52709;DHT22;38606;52.986;6.980;2024-03-08T14:15:32;8.80;99.90
52709;DHT22;38606;52.986;6.980;2024-03-08T14:17:58;8.90;99.90
52709;DHT22;38606;52.986;6.980;2024-03-08T14:20:25;8.70;99.90
52709;DHT22;38606;52.986;6.980;2024-03-08T14:22:53;8.90;99.90
52709;DHT22;38606;52.986;6.980;2024-03-08T14:25:20;9.00;99.90
52709;DHT22;38606;52.986;6.980;2024-03-08T14:27:52;8.70;99.90
52709;DHT22;38606;52.986;6.980;2024-03-08T14:30:22;8.80;99.90
52709;DHT22;38606;52.986;6.980;2024-03-08T14:33:07;8.70;99.90
52709;DHT22;38606;52.986;6.980;2024-03-08T14:35:38;8.70;99.90
52709;DHT22;38606;52.986;6.980;2024-03-08T14:38:04;8.70;99.90
52709;DHT22;38606;52.986;6.980;2024-03-08T14:40:33;8.70;99.90
52709;DHT22;38606;52.986;6.980;2024-03-08T14:42:59;8.90;99.90
52709;DHT22;38606;52.986;6.980;2024-03-08T14:45:26;8.70;99.90
52709;DHT22;38606;52.986;6.980;2024-03-08T14:47:52;8.70;99.90
52709;DHT22;38606;52.986;6.980;2024-03-08T14:50:22;8.60;99.90
52709;DHT22;38606;52.986;6.980;2024-03-08T14:52:52;8.70;99.90
52709;DHT22;38606;52.986;6.980;2024-03-08T14:55:18;8.80;99.90
52709;DHT22;38606;52.986;6.980;2024-03-08T14:57:50;8.50;99.90
52709;DHT22;38606;52.986;6.980;2024-03-08T15:00:18;8.50;99.90
52709;DHT22;38606;52.986;6.980;2024-03-08T15:02:59;8.50;99.90
52709;DHT22;38606;52.986;6.980;2024-03-08T15:05:25;8.30;99.90
52709;DHT22;38606;52.986;6.980;2024-03-08T15:07:58;8.50;99.90
52709;DHT22;38606;52.986;6.980;2024-03-08T15:10:26;8.60;99.90
52709;DHT22;38606;52.986;6.980;2024-03-08T15:12:54;8.40;99.90
52709;DHT22;38606;52.986;6.980;2024-03-08T15:15:21;8.50;99.90
52709;DHT22;38606;52.986;6.980;2024-03-08T15:17:50;8.40;99.90
52709;DHT22;38606;52.986;6.980;2024-03-08T15:20:17;8.30;99.90
52709;DHT22;38606;52.986;6.980;2024-03-08T15:22:50;8.50;99.90
52709;DHT22;38606;52.986;6.980;2024-03-08T15:25:16;8.40;99.90
52709;DHT22;38606;52.986;6.980;2024-03-08T15:27:49;8.20;99.90
52709;DHT22;38606;52.986;6.980;2024-03-08T15:30:15;8.30;99.90
52709;DHT22;38606;52.986;6.980;2024-03-08T15:32:45;8.40;99.90
52709;DHT22;38606;52.986;6.980;2024-03-08T15:35:13;8.50;99.90
52709;DHT22;38606;52.986;6.980;2024-03-08T15:37:40;8.20;99.90
52709;DHT22;38606;52.986;6.980;2024-03-08T15:40:14;6.10;99.90
52709;DHT22;38606;52.986;6.980;2024-03-08T15:43:00;8.30;99.90
52709;DHT22;38606;52.986;6.980;2024-03-08T15:45:26;8.40;99.90
52709;DHT22;38606;52.986;6.980;2024-03-08T15:47:58;8.20;99.90
52709;DHT22;38606;52.986;6.980;2024-03-08T15:50:24;8.30;99.90
52709;DHT22;38606;52.986;6.980;2024-03-08T15:52:50;8.10;99.90
52709;DHT22;38606;52.986;6.980;2024-03-08T15:55:19;8.20;99.90
52709;DHT22;38606;52.986;6.980;2024-03-08T15:57:53;8.10;99.90
52709;DHT22;38606;52.986;6.980;2024-03-08T16:00:22;8.10;99.90
52709;DHT22;38606;52.986;6.980;2024-03-08T16:03:07;8.00;99.90
52709;DHT22;38606;52.986;6.980;2024-03-08T16:05:37;8.20;99.90
52709;DHT22;38606;52.986;6.980;2024-03-08T16:08:04;7.90;99.90
52709;DHT22;38606;52.986;6.980;2024-03-08T16:10:30;7.90;99.90
52709;DHT22;38606;52.986;6.980;2024-03-08T16:12:59;8.00;99.90
52709;DHT22;38606;52.986;6.980;2024-03-08T16:15:26;8.10;99.90
52709;DHT22;38606;52.986;6.980;2024-03-08T16:17:52;7.90;99.90
52709;DHT22;38606;52.986;6.980;2024-03-08T16:20:18;7.70;99.90
52709;DHT22;38606;52.986;6.980;2024-03-08T16:22:45;8.10;99.90
52709;DHT22;38606;52.986;6.980;2024-03-08T16:25:12;7.90;99.90
52709;DHT22;38606;52.986;6.980;2024-03-08T16:27:42;7.90;99.90
52709;DHT22;38606;52.986;6.980;2024-03-08T16:30:09;8.00;99.90
52709;DHT22;38606;52.986;6.980;2024-03-08T16:32:42;7.70;99.90
52709;DHT22;38606;52.986;6.980;2024-03-08T16:35:09;8.00;99.90
52709;DHT22;38606;52.986;6.980;2024-03-08T16:37:37;7.70;99.90
52709;DHT22;38606;52.986;6.980;2024-03-08T16:40:04;7.60;99.90
52709;DHT22;38606;52.986;6.980;2024-03-08T16:42:30;7.60;99.90
52709;DHT22;38606;52.986;6.980;2024-03-08T16:44:56;7.80;99.90
52709;DHT22;38606;52.986;6.980;2024-03-08T16:47:22;7.50;99.90
52709;DHT22;38606;52.986;6.980;2024-03-08T16:49:50;7.60;99.90
52709;DHT22;38606;52.986;6.980;2024-03-08T16:52:16;7.50;99.90
52709;DHT22;38606;52.986;6.980;2024-03-08T16:54:43;7.60;99.90
52709;DHT22;38606;52.986;6.980;2024-03-08T16:57:09;7.50;99.90
52709;DHT22;38606;52.986;6.980;2024-03-08T16:59:40;7.60;99.90
52709;DHT22;38606;52.986;6.980;2024-03-08T17:02:06;7.50;99.90
52709;DHT22;38606;52.986;6.980;2024-03-08T17:04:36;7.50;99.90
52709;DHT22;38606;52.986;6.980;2024-03-08T17:07:03;7.50;99.90
52709;DHT22;38606;52.986;6.980;2024-03-08T17:09:31;7.40;99.90
52709;DHT22;38606;52.986;6.980;2024-03-08T17:12:00;7.40;99.90
52709;DHT22;38606;52.986;6.980;2024-03-08T17:14:26;7.30;99.90
52709;DHT22;38606;52.986;6.980;2024-03-08T17:16:54;7.20;99.90
52709;DHT22;38606;52.986;6.980;2024-03-08T17:19:23;7.20;99.90
52709;DHT22;38606;52.986;6.980;2024-03-08T17:21:48;7.20;99.90
52709;DHT22;38606;52.986;6.980;2024-03-08T17:24:14;7.10;99.90
52709;DHT22;38606;52.986;6.980;2024-03-08T17:26:42;7.10;99.90